sensor_id;sensor_type;location;lat;lon;timestamp;temperature;humidity
51011;DHT22;37038;50.182;8.624;2022-09-09T00:05:29;15.40;99.90
51011;DHT22;37038;50.182;8.624;2022-09-09T00:08:27;15.40;99.90
51011;DHT22;37038;50.182;8.624;2022-09-09T00:11:32;15.30;99.90
51011;DHT22;37038;50.182;8.624;2022-09-09T00:14:54;15.30;99.90
51011;DHT22;37038;50.182;8.624;2022-09-09T00:18:25;15.30;99.90
51011;DHT22;37038;50.182;8.624;2022-09-09T00:21:18;15.30;99.90
51011;DHT22;37038;50.182;8.624;2022-09-09T00:24:15;15.30;99.90
51011;DHT22;37038;50.182;8.624;2022-09-09T00:27:34;15.30;99.90
51011;DHT22;37038;50.182;8.624;2022-09-09T00:30:32;15.20;99.90
51011;DHT22;37038;50.182;8.624;2022-09-09T00:33:23;15.20;99.90
51011;DHT22;37038;50.182;8.624;2022-09-09T00:36:14;15.10;99.90
51011;DHT22;37038;50.182;8.624;2022-09-09T00:39:05;15.10;99.90
51011;DHT22;37038;50.182;8.624;2022-09-09T00:42:23;15.10;99.90
51011;DHT22;37038;50.182;8.624;2022-09-09T00:52:08;15.00;99.90
51011;DHT22;37038;50.182;8.624;2022-09-09T00:58:35;14.90;99.90
51011;DHT22;37038;50.182;8.624;2022-09-09T01:01:23;14.90;99.90
51011;DHT22;37038;50.182;8.624;2022-09-09T01:04:16;14.80;99.90
51011;DHT22;37038;50.182;8.624;2022-09-09T01:07:17;14.70;99.90
51011;DHT22;37038;50.182;8.624;2022-09-09T01:13:33;14.70;99.90
51011;DHT22;37038;50.182;8.624;2022-09-09T01:16:22;14.70;99.90
51011;DHT22;37038;50.182;8.624;2022-09-09T01:19:19;14.70;99.90
51011;DHT22;37038;50.182;8.624;2022-09-09T01:28:32;14.60;99.90
51011;DHT22;37038;50.182;8.624;2022-09-09T01:31:31;14.60;99.90
51011;DHT22;37038;50.182;8.624;2022-09-09T01:34:24;14.60;99.90
51011;DHT22;37038;50.182;8.624;2022-09-09T01:37:14;14.60;99.90
51011;DHT22;37038;50.182;8.624;2022-09-09T01:40:02;14.50;99.90
51011;DHT22;37038;50.182;8.624;2022-09-09T01:42:51;14.50;99.90
51011;DHT22;37038;50.182;8.624;2022-09-09T01:45:41;14.50;99.90
51011;DHT22;37038;50.182;8.624;2022-09-09T01:48:29;14.50;99.90
51011;DHT22;37038;50.182;8.624;2022-09-09T01:51:17;14.40;99.90
51011;DHT22;37038;50.182;8.624;2022-09-09T01:54:06;14.40;99.90
51011;DHT22;37038;50.182;8.624;2022-09-09T02:00:13;14.30;99.90
51011;DHT22;37038;50.182;8.624;2022-09-09T02:03:21;14.20;99.90
51011;DHT22;37038;50.182;8.624;2022-09-09T02:06:34;14.20;99.90
51011;DHT22;37038;50.182;8.624;2022-09-09T02:09:26;14.10;99.90
51011;DHT22;37038;50.182;8.624;2022-09-09T02:12:19;14.20;99.90
51011;DHT22;37038;50.182;8.624;2022-09-09T02:15:26;14.20;99.90
51011;DHT22;37038;50.182;8.624;2022-09-09T02:18:24;14.20;99.90
51011;DHT22;37038;50.182;8.624;2022-09-09T02:21:15;14.30;99.90
51011;DHT22;37038;50.182;8.624;2022-09-09T02:24:06;14.30;99.90
51011;DHT22;37038;50.182;8.624;2022-09-09T02:26:58;14.30;99.90
51011;DHT22;37038;50.182;8.624;2022-09-09T02:29:49;14.30;99.90
51011;DHT22;37038;50.182;8.624;2022-09-09T02:32:40;14.30;99.90
51011;DHT22;37038;50.182;8.624;2022-09-09T02:35:30;14.40;99.90
51011;DHT22;37038;50.182;8.624;2022-09-09T02:38:21;14.50;99.90
51011;DHT22;37038;50.182;8.624;2022-09-09T02:41:12;14.50;99.90
51011;DHT22;37038;50.182;8.624;2022-09-09T02:44:00;14.50;99.90
51011;DHT22;37038;50.182;8.624;2022-09-09T02:56:09;14.70;99.90
51011;DHT22;37038;50.182;8.624;2022-09-09T02:59:04;14.70;99.90
51011;DHT22;37038;50.182;8.624;2022-09-09T03:01:52;14.70;99.90
51011;DHT22;37038;50.182;8.624;2022-09-09T03:04:41;14.70;99.90
51011;DHT22;37038;50.182;8.624;2022-09-09T03:07:31;14.70;99.90
51011;DHT22;37038;50.182;8.624;2022-09-09T03:10:19;14.60;99.90
51011;DHT22;37038;50.182;8.624;2022-09-09T03:13:07;14.70;99.90
51011;DHT22;37038;50.182;8.624;2022-09-09T03:15:55;14.70;99.90
51011;DHT22;37038;50.182;8.624;2022-09-09T03:18:43;14.60;99.90
51011;DHT22;37038;50.182;8.624;2022-09-09T03:21:32;14.60;99.90
51011;DHT22;37038;50.182;8.624;2022-09-09T03:24:20;14.60;99.90
51011;DHT22;37038;50.182;8.624;2022-09-09T03:27:08;14.60;99.90
51011;DHT22;37038;50.182;8.624;2022-09-09T03:29:56;14.60;99.90
51011;DHT22;37038;50.182;8.624;2022-09-09T03:32:44;14.60;99.90
51011;DHT22;37038;50.182;8.624;2022-09-09T03:35:35;14.50;99.90
51011;DHT22;37038;50.182;8.624;2022-09-09T03:38:24;14.50;99.90
51011;DHT22;37038;50.182;8.624;2022-09-09T03:41:12;14.50;99.90
51011;DHT22;37038;50.182;8.624;2022-09-09T03:44:00;14.50;99.90
51011;DHT22;37038;50.182;8.624;2022-09-09T03:46:48;14.50;99.90
51011;DHT22;37038;50.182;8.624;2022-09-09T03:49:35;14.60;99.90
51011;DHT22;37038;50.182;8.624;2022-09-09T03:52:23;14.60;99.90
51011;DHT22;37038;50.182;8.624;2022-09-09T03:55:13;14.60;99.90
51011;DHT22;37038;50.182;8.624;2022-09-09T03:58:01;14.60;99.90
51011;DHT22;37038;50.182;8.624;2022-09-09T04:01:03;14.60;99.90
51011;DHT22;37038;50.182;8.624;2022-09-09T04:03:53;14.60;99.90
51011;DHT22;37038;50.182;8.624;2022-09-09T04:06:42;14.60;99.90
51011;DHT22;37038;50.182;8.624;2022-09-09T04:09:29;14.60;99.90
51011;DHT22;37038;50.182;8.624;2022-09-09T04:12:17;14.70;99.90
51011;DHT22;37038;50.182;8.624;2022-09-09T04:15:05;14.60;99.90
51011;DHT22;37038;50.182;8.624;2022-09-09T04:17:53;14.70;99.90
51011;DHT22;37038;50.182;8.624;2022-09-09T04:20:41;14.70;99.90
51011;DHT22;37038;50.182;8.624;2022-09-09T04:23:30;14.60;99.90
51011;DHT22;37038;50.182;8.624;2022-09-09T04:26:18;14.60;99.90
51011;DHT22;37038;50.182;8.624;2022-09-09T04:29:07;14.60;99.90
51011;DHT22;37038;50.182;8.624;2022-09-09T04:31:55;14.50;99.90
51011;DHT22;37038;50.182;8.624;2022-09-09T04:34:43;14.50;99.90
51011;DHT22;37038;50.182;8.624;2022-09-09T04:37:32;14.50;99.90
51011;DHT22;37038;50.182;8.624;2022-09-09T04:40:20;14.50;99.90
51011;DHT22;37038;50.182;8.624;2022-09-09T04:43:09;14.50;99.90
51011;DHT22;37038;50.182;8.624;2022-09-09T04:46:01;14.50;99.90
51011;DHT22;37038;50.182;8.624;2022-09-09T04:48:49;14.50;99.90
51011;DHT22;37038;50.182;8.624;2022-09-09T04:51:37;14.50;99.90
51011;DHT22;37038;50.182;8.624;2022-09-09T04:54:26;14.60;99.90
51011;DHT22;37038;50.182;8.624;2022-09-09T04:57:15;14.60;99.90
51011;DHT22;37038;50.182;8.624;2022-09-09T05:00:05;14.60;99.90
51011;DHT22;37038;50.182;8.624;2022-09-09T05:02:54;14.60;99.90
51011;DHT22;37038;50.182;8.624;2022-09-09T05:05:42;14.60;99.90
51011;DHT22;37038;50.182;8.624;2022-09-09T05:08:29;14.60;99.90
51011;DHT22;37038;50.182;8.624;2022-09-09T05:11:18;14.60;99.90
51011;DHT22;37038;50.182;8.624;2022-09-09T05:14:13;14.60;99.90
51011;DHT22;37038;50.182;8.624;2022-09-09T05:17:02;14.60;99.90
51011;DHT22;37038;50.182;8.624;2022-09-09T05:19:50;14.60;99.90
51011;DHT22;37038;50.182;8.624;2022-09-09T05:22:37;14.60;99.90
51011;DHT22;37038;50.182;8.624;2022-09-09T05:25:25;14.60;99.90
51011;DHT22;37038;50.182;8.624;2022-09-09T05:28:13;14.60;99.90
51011;DHT22;37038;50.182;8.624;2022-09-09T05:31:03;14.70;99.90
51011;DHT22;37038;50.182;8.624;2022-09-09T05:33:52;14.80;99.90
51011;DHT22;37038;50.182;8.624;2022-09-09T05:36:40;14.90;99.90
51011;DHT22;37038;50.182;8.624;2022-09-09T05:39:28;15.00;99.90
51011;DHT22;37038;50.182;8.624;2022-09-09T05:42:16;15.00;99.90
51011;DHT22;37038;50.182;8.624;2022-09-09T05:45:05;15.00;99.90
51011;DHT22;37038;50.182;8.624;2022-09-09T05:47:55;15.10;99.90
51011;DHT22;37038;50.182;8.624;2022-09-09T05:50:43;15.20;99.90
51011;DHT22;37038;50.182;8.624;2022-09-09T05:53:32;15.30;99.90
51011;DHT22;37038;50.182;8.624;2022-09-09T05:56:24;15.30;99.90
51011;DHT22;37038;50.182;8.624;2022-09-09T05:59:13;15.40;99.90
51011;DHT22;37038;50.182;8.624;2022-09-09T06:02:02;15.40;99.90
51011;DHT22;37038;50.182;8.624;2022-09-09T06:04:50;15.30;99.90
51011;DHT22;37038;50.182;8.624;2022-09-09T06:07:38;15.40;99.90
51011;DHT22;37038;50.182;8.624;2022-09-09T06:10:29;15.40;99.90
51011;DHT22;37038;50.182;8.624;2022-09-09T06:13:17;15.60;99.90
51011;DHT22;37038;50.182;8.624;2022-09-09T06:16:12;15.70;99.90
51011;DHT22;37038;50.182;8.624;2022-09-09T06:19:04;15.70;99.90
51011;DHT22;37038;50.182;8.624;2022-09-09T06:21:51;15.90;99.90
51011;DHT22;37038;50.182;8.624;2022-09-09T06:24:39;16.10;99.90
51011;DHT22;37038;50.182;8.624;2022-09-09T06:27:27;16.30;99.90
51011;DHT22;37038;50.182;8.624;2022-09-09T06:30:16;16.40;99.90
51011;DHT22;37038;50.182;8.624;2022-09-09T06:33:04;16.50;99.90
51011;DHT22;37038;50.182;8.624;2022-09-09T06:35:53;16.50;99.90
51011;DHT22;37038;50.182;8.624;2022-09-09T06:38:42;16.50;99.90
51011;DHT22;37038;50.182;8.624;2022-09-09T06:41:31;16.70;99.90
51011;DHT22;37038;50.182;8.624;2022-09-09T06:44:20;16.90;99.90
51011;DHT22;37038;50.182;8.624;2022-09-09T06:47:08;17.00;99.90
51011;DHT22;37038;50.182;8.624;2022-09-09T06:49:55;16.90;99.90
51011;DHT22;37038;50.182;8.624;2022-09-09T06:52:46;16.90;99.90
51011;DHT22;37038;50.182;8.624;2022-09-09T06:55:35;16.90;99.90
51011;DHT22;37038;50.182;8.624;2022-09-09T06:58:22;16.80;99.90
51011;DHT22;37038;50.182;8.624;2022-09-09T07:01:16;16.80;99.90
51011;DHT22;37038;50.182;8.624;2022-09-09T07:04:06;16.80;99.90
51011;DHT22;37038;50.182;8.624;2022-09-09T07:06:55;16.80;99.90
51011;DHT22;37038;50.182;8.624;2022-09-09T07:09:42;16.70;99.90
51011;DHT22;37038;50.182;8.624;2022-09-09T07:12:30;16.60;99.90
51011;DHT22;37038;50.182;8.624;2022-09-09T07:15:18;16.60;99.90
51011;DHT22;37038;50.182;8.624;2022-09-09T07:18:07;16.60;99.90
51011;DHT22;37038;50.182;8.624;2022-09-09T07:20:55;16.60;99.90
51011;DHT22;37038;50.182;8.624;2022-09-09T07:23:44;16.50;99.90
51011;DHT22;37038;50.182;8.624;2022-09-09T07:26:32;16.50;99.90
51011;DHT22;37038;50.182;8.624;2022-09-09T07:29:20;16.60;99.90
51011;DHT22;37038;50.182;8.624;2022-09-09T07:32:07;16.70;99.90
51011;DHT22;37038;50.182;8.624;2022-09-09T07:34:55;16.80;99.90
51011;DHT22;37038;50.182;8.624;2022-09-09T07:37:45;16.90;99.90
51011;DHT22;37038;50.182;8.624;2022-09-09T07:40:37;16.90;99.90
51011;DHT22;37038;50.182;8.624;2022-09-09T07:43:26;16.90;99.90
51011;DHT22;37038;50.182;8.624;2022-09-09T07:46:15;17.00;99.90
51011;DHT22;37038;50.182;8.624;2022-09-09T07:49:04;17.20;99.90
51011;DHT22;37038;50.182;8.624;2022-09-09T07:51:52;17.30;99.90
51011;DHT22;37038;50.182;8.624;2022-09-09T07:54:40;17.40;99.90
51011;DHT22;37038;50.182;8.624;2022-09-09T07:57:29;17.50;99.90
51011;DHT22;37038;50.182;8.624;2022-09-09T08:00:18;17.50;99.90
51011;DHT22;37038;50.182;8.624;2022-09-09T08:03:06;17.50;99.90
51011;DHT22;37038;50.182;8.624;2022-09-09T08:06:00;17.60;99.90
51011;DHT22;37038;50.182;8.624;2022-09-09T08:08:50;17.60;99.90
51011;DHT22;37038;50.182;8.624;2022-09-09T08:11:39;17.70;99.90
51011;DHT22;37038;50.182;8.624;2022-09-09T08:14:28;17.70;99.90
51011;DHT22;37038;50.182;8.624;2022-09-09T08:17:17;17.70;99.90
51011;DHT22;37038;50.182;8.624;2022-09-09T08:20:05;17.60;99.90
51011;DHT22;37038;50.182;8.624;2022-09-09T08:22:55;17.60;99.90
51011;DHT22;37038;50.182;8.624;2022-09-09T08:25:43;17.50;99.90
51011;DHT22;37038;50.182;8.624;2022-09-09T08:28:32;17.50;99.90
51011;DHT22;37038;50.182;8.624;2022-09-09T08:31:26;17.60;99.90
51011;DHT22;37038;50.182;8.624;2022-09-09T08:34:18;17.70;99.90
51011;DHT22;37038;50.182;8.624;2022-09-09T08:37:08;17.90;99.90
51011;DHT22;37038;50.182;8.624;2022-09-09T08:39:56;18.00;99.90
51011;DHT22;37038;50.182;8.624;2022-09-09T08:42:51;18.10;99.90
51011;DHT22;37038;50.182;8.624;2022-09-09T08:45:58;18.00;99.90
51011;DHT22;37038;50.182;8.624;2022-09-09T08:49:11;17.80;99.90
51011;DHT22;37038;50.182;8.624;2022-09-09T08:52:25;17.50;99.90
51011;DHT22;37038;50.182;8.624;2022-09-09T08:55:41;17.40;99.90
51011;DHT22;37038;50.182;8.624;2022-09-09T08:58:54;17.40;99.90
51011;DHT22;37038;50.182;8.624;2022-09-09T09:01:50;17.60;99.90
51011;DHT22;37038;50.182;8.624;2022-09-09T09:04:56;17.80;99.90
51011;DHT22;37038;50.182;8.624;2022-09-09T09:10:51;18.10;99.90
51011;DHT22;37038;50.182;8.624;2022-09-09T09:13:54;18.20;99.90
51011;DHT22;37038;50.182;8.624;2022-09-09T09:17:02;18.40;99.90
51011;DHT22;37038;50.182;8.624;2022-09-09T09:19:52;18.40;99.90
51011;DHT22;37038;50.182;8.624;2022-09-09T09:22:51;18.20;99.90
51011;DHT22;37038;50.182;8.624;2022-09-09T09:25:41;18.10;99.90
51011;DHT22;37038;50.182;8.624;2022-09-09T09:28:32;18.00;99.90
51011;DHT22;37038;50.182;8.624;2022-09-09T09:31:21;18.00;99.90
51011;DHT22;37038;50.182;8.624;2022-09-09T09:34:13;18.00;99.90
51011;DHT22;37038;50.182;8.624;2022-09-09T09:37:01;18.00;99.90
51011;DHT22;37038;50.182;8.624;2022-09-09T09:39:49;18.10;99.90
51011;DHT22;37038;50.182;8.624;2022-09-09T09:43:02;18.20;99.90
51011;DHT22;37038;50.182;8.624;2022-09-09T09:45:56;18.30;99.90
51011;DHT22;37038;50.182;8.624;2022-09-09T09:49:05;18.30;99.90
51011;DHT22;37038;50.182;8.624;2022-09-09T09:52:00;18.20;99.90
51011;DHT22;37038;50.182;8.624;2022-09-09T09:54:50;18.10;99.90
51011;DHT22;37038;50.182;8.624;2022-09-09T09:57:39;18.00;99.90
51011;DHT22;37038;50.182;8.624;2022-09-09T10:00:27;17.90;99.90
51011;DHT22;37038;50.182;8.624;2022-09-09T10:03:24;17.70;99.90
51011;DHT22;37038;50.182;8.624;2022-09-09T10:06:14;17.20;99.90
51011;DHT22;37038;50.182;8.624;2022-09-09T10:09:03;16.90;99.90
51011;DHT22;37038;50.182;8.624;2022-09-09T10:16:08;16.70;99.90
51011;DHT22;37038;50.182;8.624;2022-09-09T10:19:10;16.60;99.90
51011;DHT22;37038;50.182;8.624;2022-09-09T10:22:25;16.50;99.90
51011;DHT22;37038;50.182;8.624;2022-09-09T10:32:41;16.40;99.90
51011;DHT22;37038;50.182;8.624;2022-09-09T10:42:00;16.50;99.90
51011;DHT22;37038;50.182;8.624;2022-09-09T10:45:17;16.50;99.90
51011;DHT22;37038;50.182;8.624;2022-09-09T10:54:38;16.30;99.90
51011;DHT22;37038;50.182;8.624;2022-09-09T10:57:40;16.40;99.90
51011;DHT22;37038;50.182;8.624;2022-09-09T11:00:41;16.60;99.90
51011;DHT22;37038;50.182;8.624;2022-09-09T11:03:33;16.90;99.90
51011;DHT22;37038;50.182;8.624;2022-09-09T11:06:29;17.00;99.90
51011;DHT22;37038;50.182;8.624;2022-09-09T11:09:31;17.20;99.90
51011;DHT22;37038;50.182;8.624;2022-09-09T11:12:24;17.50;99.90
51011;DHT22;37038;50.182;8.624;2022-09-09T11:15:20;17.80;99.90
51011;DHT22;37038;50.182;8.624;2022-09-09T11:18:21;18.00;99.90
51011;DHT22;37038;50.182;8.624;2022-09-09T11:21:28;18.20;99.90
51011;DHT22;37038;50.182;8.624;2022-09-09T11:24:32;18.40;99.90
51011;DHT22;37038;50.182;8.624;2022-09-09T11:27:36;18.50;99.90
51011;DHT22;37038;50.182;8.624;2022-09-09T11:37:55;18.90;99.90
51011;DHT22;37038;50.182;8.624;2022-09-09T11:41:04;19.30;99.90
51011;DHT22;37038;50.182;8.624;2022-09-09T11:43:54;19.60;99.90
51011;DHT22;37038;50.182;8.624;2022-09-09T11:46:45;19.70;99.90
51011;DHT22;37038;50.182;8.624;2022-09-09T11:49:41;19.70;99.90
51011;DHT22;37038;50.182;8.624;2022-09-09T11:52:41;19.80;99.90
51011;DHT22;37038;50.182;8.624;2022-09-09T11:55:34;19.80;99.90
51011;DHT22;37038;50.182;8.624;2022-09-09T11:58:24;19.70;99.90
51011;DHT22;37038;50.182;8.624;2022-09-09T12:01:26;19.70;99.90
51011;DHT22;37038;50.182;8.624;2022-09-09T12:07:33;19.90;99.90
51011;DHT22;37038;50.182;8.624;2022-09-09T12:10:36;20.00;99.90
51011;DHT22;37038;50.182;8.624;2022-09-09T12:13:27;20.10;99.90
51011;DHT22;37038;50.182;8.624;2022-09-09T12:16:35;20.10;99.90
51011;DHT22;37038;50.182;8.624;2022-09-09T12:19:24;20.20;99.90
51011;DHT22;37038;50.182;8.624;2022-09-09T12:32:06;19.70;99.90
51011;DHT22;37038;50.182;8.624;2022-09-09T12:35:09;19.50;99.90
51011;DHT22;37038;50.182;8.624;2022-09-09T12:38:01;19.50;99.90
51011;DHT22;37038;50.182;8.624;2022-09-09T12:40:57;19.40;99.90
51011;DHT22;37038;50.182;8.624;2022-09-09T12:43:45;19.40;99.90
51011;DHT22;37038;50.182;8.624;2022-09-09T12:46:39;19.30;99.90
51011;DHT22;37038;50.182;8.624;2022-09-09T12:52:30;19.40;99.90
51011;DHT22;37038;50.182;8.624;2022-09-09T12:55:27;19.20;99.90
51011;DHT22;37038;50.182;8.624;2022-09-09T12:58:18;18.70;99.90
51011;DHT22;37038;50.182;8.624;2022-09-09T13:01:20;18.10;99.90
51011;DHT22;37038;50.182;8.624;2022-09-09T13:04:20;17.70;99.90
51011;DHT22;37038;50.182;8.624;2022-09-09T13:07:10;17.60;99.90
51011;DHT22;37038;50.182;8.624;2022-09-09T13:09:59;17.70;99.90
51011;DHT22;37038;50.182;8.624;2022-09-09T13:12:49;18.00;99.90
51011;DHT22;37038;50.182;8.624;2022-09-09T13:15:37;18.20;99.90
51011;DHT22;37038;50.182;8.624;2022-09-09T13:18:29;18.30;99.90
51011;DHT22;37038;50.182;8.624;2022-09-09T13:21:31;18.40;99.90
51011;DHT22;37038;50.182;8.624;2022-09-09T13:24:33;18.40;99.90
51011;DHT22;37038;50.182;8.624;2022-09-09T13:27:34;18.50;99.90
51011;DHT22;37038;50.182;8.624;2022-09-09T13:30:27;18.40;99.90
51011;DHT22;37038;50.182;8.624;2022-09-09T13:33:22;18.40;99.90
51011;DHT22;37038;50.182;8.624;2022-09-09T13:36:11;18.40;99.90
51011;DHT22;37038;50.182;8.624;2022-09-09T13:39:03;18.40;99.90
51011;DHT22;37038;50.182;8.624;2022-09-09T13:41:51;18.40;99.90
51011;DHT22;37038;50.182;8.624;2022-09-09T13:44:40;18.40;99.90
51011;DHT22;37038;50.182;8.624;2022-09-09T13:47:32;18.40;99.90
51011;DHT22;37038;50.182;8.624;2022-09-09T13:50:27;18.40;99.90
51011;DHT22;37038;50.182;8.624;2022-09-09T13:53:15;18.60;99.90
51011;DHT22;37038;50.182;8.624;2022-09-09T13:56:03;18.60;99.90
51011;DHT22;37038;50.182;8.624;2022-09-09T13:58:52;18.60;99.90
51011;DHT22;37038;50.182;8.624;2022-09-09T14:01:40;18.70;99.90
51011;DHT22;37038;50.182;8.624;2022-09-09T14:04:28;18.60;99.90
51011;DHT22;37038;50.182;8.624;2022-09-09T14:07:17;18.60;99.90
51011;DHT22;37038;50.182;8.624;2022-09-09T14:10:06;18.50;99.90
51011;DHT22;37038;50.182;8.624;2022-09-09T14:12:54;18.50;99.90
51011;DHT22;37038;50.182;8.624;2022-09-09T14:15:42;18.40;99.90
51011;DHT22;37038;50.182;8.624;2022-09-09T14:18:30;18.40;99.90
51011;DHT22;37038;50.182;8.624;2022-09-09T14:21:17;18.30;99.90
51011;DHT22;37038;50.182;8.624;2022-09-09T14:24:05;18.20;99.90
51011;DHT22;37038;50.182;8.624;2022-09-09T14:26:54;18.10;99.90
51011;DHT22;37038;50.182;8.624;2022-09-09T14:29:42;18.00;99.90
51011;DHT22;37038;50.182;8.624;2022-09-09T14:32:31;17.90;99.90
51011;DHT22;37038;50.182;8.624;2022-09-09T14:35:20;18.00;99.90
51011;DHT22;37038;50.182;8.624;2022-09-09T14:38:08;18.10;99.90
51011;DHT22;37038;50.182;8.624;2022-09-09T14:40:56;18.10;99.90
51011;DHT22;37038;50.182;8.624;2022-09-09T14:43:46;18.20;99.90
51011;DHT22;37038;50.182;8.624;2022-09-09T14:46:34;18.30;99.90
51011;DHT22;37038;50.182;8.624;2022-09-09T14:49:21;18.30;99.90
51011;DHT22;37038;50.182;8.624;2022-09-09T14:52:09;18.40;99.90
51011;DHT22;37038;50.182;8.624;2022-09-09T14:54:57;18.30;99.90
51011;DHT22;37038;50.182;8.624;2022-09-09T14:57:45;18.20;99.90
51011;DHT22;37038;50.182;8.624;2022-09-09T15:00:33;18.30;99.90
51011;DHT22;37038;50.182;8.624;2022-09-09T15:03:21;18.40;99.90
51011;DHT22;37038;50.182;8.624;2022-09-09T15:06:14;18.60;99.90
51011;DHT22;37038;50.182;8.624;2022-09-09T15:09:02;18.70;99.90
51011;DHT22;37038;50.182;8.624;2022-09-09T15:11:50;18.80;99.90
51011;DHT22;37038;50.182;8.624;2022-09-09T15:14:37;18.90;99.90
51011;DHT22;37038;50.182;8.624;2022-09-09T15:17:25;19.00;99.90
51011;DHT22;37038;50.182;8.624;2022-09-09T15:20:14;19.00;99.90
51011;DHT22;37038;50.182;8.624;2022-09-09T15:23:03;19.00;99.90
51011;DHT22;37038;50.182;8.624;2022-09-09T15:25:53;19.00;99.90
51011;DHT22;37038;50.182;8.624;2022-09-09T15:28:43;19.00;99.90
51011;DHT22;37038;50.182;8.624;2022-09-09T15:31:32;19.00;99.90
51011;DHT22;37038;50.182;8.624;2022-09-09T15:34:20;19.00;99.90
51011;DHT22;37038;50.182;8.624;2022-09-09T15:37:10;18.90;99.90
51011;DHT22;37038;50.182;8.624;2022-09-09T15:40:00;18.90;99.90
51011;DHT22;37038;50.182;8.624;2022-09-09T15:42:48;18.90;99.90
51011;DHT22;37038;50.182;8.624;2022-09-09T15:45:36;18.90;99.90
51011;DHT22;37038;50.182;8.624;2022-09-09T15:48:30;18.90;99.90
51011;DHT22;37038;50.182;8.624;2022-09-09T15:51:22;18.80;99.90
51011;DHT22;37038;50.182;8.624;2022-09-09T15:54:32;18.70;99.90
51011;DHT22;37038;50.182;8.624;2022-09-09T15:57:25;18.60;99.90
51011;DHT22;37038;50.182;8.624;2022-09-09T16:00:14;18.50;99.90
51011;DHT22;37038;50.182;8.624;2022-09-09T16:03:02;18.30;99.90
51011;DHT22;37038;50.182;8.624;2022-09-09T16:05:51;18.20;99.90
51011;DHT22;37038;50.182;8.624;2022-09-09T16:08:42;18.00;99.90
51011;DHT22;37038;50.182;8.624;2022-09-09T16:11:33;18.00;99.90
51011;DHT22;37038;50.182;8.624;2022-09-09T16:14:23;17.90;99.90
51011;DHT22;37038;50.182;8.624;2022-09-09T16:17:12;17.90;99.90
51011;DHT22;37038;50.182;8.624;2022-09-09T16:20:02;17.90;99.90
51011;DHT22;37038;50.182;8.624;2022-09-09T16:22:50;17.80;99.90
51011;DHT22;37038;50.182;8.624;2022-09-09T16:25:38;17.70;99.90
51011;DHT22;37038;50.182;8.624;2022-09-09T16:28:27;17.70;99.90
51011;DHT22;37038;50.182;8.624;2022-09-09T16:31:18;17.60;99.90
51011;DHT22;37038;50.182;8.624;2022-09-09T16:34:09;17.60;99.90
51011;DHT22;37038;50.182;8.624;2022-09-09T16:36:57;17.50;99.90
51011;DHT22;37038;50.182;8.624;2022-09-09T16:39:45;17.50;99.90
51011;DHT22;37038;50.182;8.624;2022-09-09T16:42:33;17.50;99.90
51011;DHT22;37038;50.182;8.624;2022-09-09T16:45:26;17.50;99.90
51011;DHT22;37038;50.182;8.624;2022-09-09T16:48:13;17.40;99.90
51011;DHT22;37038;50.182;8.624;2022-09-09T16:51:13;17.40;99.90
51011;DHT22;37038;50.182;8.624;2022-09-09T16:54:04;17.40;99.90
51011;DHT22;37038;50.182;8.624;2022-09-09T16:56:54;17.40;99.90
51011;DHT22;37038;50.182;8.624;2022-09-09T16:59:42;17.40;99.90
51011;DHT22;37038;50.182;8.624;2022-09-09T17:02:30;17.40;99.90
51011;DHT22;37038;50.182;8.624;2022-09-09T17:05:17;17.50;99.90
51011;DHT22;37038;50.182;8.624;2022-09-09T17:08:05;17.50;99.90
51011;DHT22;37038;50.182;8.624;2022-09-09T17:10:53;17.50;99.90
51011;DHT22;37038;50.182;8.624;2022-09-09T17:13:42;17.60;99.90
51011;DHT22;37038;50.182;8.624;2022-09-09T17:16:32;17.60;99.90
51011;DHT22;37038;50.182;8.624;2022-09-09T17:19:21;17.60;99.90
51011;DHT22;37038;50.182;8.624;2022-09-09T17:22:09;17.60;99.90
51011;DHT22;37038;50.182;8.624;2022-09-09T17:25:04;17.50;99.90
51011;DHT22;37038;50.182;8.624;2022-09-09T17:27:53;17.50;99.90
51011;DHT22;37038;50.182;8.624;2022-09-09T17:30:41;17.40;99.90
51011;DHT22;37038;50.182;8.624;2022-09-09T17:33:29;17.40;99.90
51011;DHT22;37038;50.182;8.624;2022-09-09T17:36:29;17.30;99.90
51011;DHT22;37038;50.182;8.624;2022-09-09T17:39:19;17.30;99.90
51011;DHT22;37038;50.182;8.624;2022-09-09T17:42:07;17.30;99.90
51011;DHT22;37038;50.182;8.624;2022-09-09T17:44:55;17.20;99.90
51011;DHT22;37038;50.182;8.624;2022-09-09T17:47:43;17.20;99.90
51011;DHT22;37038;50.182;8.624;2022-09-09T17:50:32;17.10;99.90
51011;DHT22;37038;50.182;8.624;2022-09-09T17:53:21;17.10;99.90
51011;DHT22;37038;50.182;8.624;2022-09-09T17:56:10;17.00;99.90
51011;DHT22;37038;50.182;8.624;2022-09-09T17:59:01;17.00;99.90
51011;DHT22;37038;50.182;8.624;2022-09-09T18:01:50;17.00;99.90
51011;DHT22;37038;50.182;8.624;2022-09-09T18:04:38;17.00;99.90
51011;DHT22;37038;50.182;8.624;2022-09-09T18:07:25;16.90;99.90
51011;DHT22;37038;50.182;8.624;2022-09-09T18:10:13;16.90;99.90
51011;DHT22;37038;50.182;8.624;2022-09-09T18:13:01;16.90;99.90
51011;DHT22;37038;50.182;8.624;2022-09-09T18:15:49;16.80;99.90
51011;DHT22;37038;50.182;8.624;2022-09-09T18:18:37;16.80;99.90
51011;DHT22;37038;50.182;8.624;2022-09-09T18:21:25;16.70;99.90
51011;DHT22;37038;50.182;8.624;2022-09-09T18:24:15;16.60;99.90
51011;DHT22;37038;50.182;8.624;2022-09-09T18:27:04;16.50;99.90
51011;DHT22;37038;50.182;8.624;2022-09-09T18:29:53;16.40;99.90
51011;DHT22;37038;50.182;8.624;2022-09-09T18:32:40;16.30;99.90
51011;DHT22;37038;50.182;8.624;2022-09-09T18:35:28;16.30;99.90
51011;DHT22;37038;50.182;8.624;2022-09-09T18:38:16;16.20;99.90
51011;DHT22;37038;50.182;8.624;2022-09-09T18:44:18;16.20;99.90
51011;DHT22;37038;50.182;8.624;2022-09-09T18:47:07;16.20;99.90
51011;DHT22;37038;50.182;8.624;2022-09-09T18:49:55;16.20;99.90
51011;DHT22;37038;50.182;8.624;2022-09-09T18:52:42;16.20;99.90
51011;DHT22;37038;50.182;8.624;2022-09-09T18:55:30;16.20;99.90
51011;DHT22;37038;50.182;8.624;2022-09-09T18:58:19;16.00;99.90
51011;DHT22;37038;50.182;8.624;2022-09-09T19:01:12;15.80;99.90
51011;DHT22;37038;50.182;8.624;2022-09-09T19:04:03;15.70;99.90
51011;DHT22;37038;50.182;8.624;2022-09-09T19:06:52;15.60;99.90
51011;DHT22;37038;50.182;8.624;2022-09-09T19:09:44;15.50;99.90
51011;DHT22;37038;50.182;8.624;2022-09-09T19:12:32;15.50;99.90
51011;DHT22;37038;50.182;8.624;2022-09-09T19:15:20;15.50;99.90
51011;DHT22;37038;50.182;8.624;2022-09-09T19:18:08;15.50;99.90
51011;DHT22;37038;50.182;8.624;2022-09-09T19:20:56;15.50;99.90
51011;DHT22;37038;50.182;8.624;2022-09-09T19:23:45;15.40;99.90
51011;DHT22;37038;50.182;8.624;2022-09-09T19:26:36;15.40;99.90
51011;DHT22;37038;50.182;8.624;2022-09-09T19:29:29;15.30;99.90
51011;DHT22;37038;50.182;8.624;2022-09-09T19:32:18;15.30;99.90
51011;DHT22;37038;50.182;8.624;2022-09-09T19:35:26;15.20;99.90